Terminal Aerodrome Forecast
Issued by NWS Charleston, SC

Home | Current Version | Previous Version | Text Only | Print | Product List | Glossary On
Versions: 1 2 3 4 5 6 7 8 9 10 11 12 13 14 15 16
000
FTUS42 KCHS 022300
TAFSAV
TAF
KSAV 022327Z 0300/0324 VRB03KT P6SM BKN150
     FM030900 VRB03KT 6SM BR FEW015 SCT150
     FM031400 23004KT P6SM FEW020
     FM031700 14010KT P6SM SCT030=

USA.gov is the U.S. government's official web portal to all federal, state and local government web resources and services.